Time;durP1;ratioP1;P1;durP2;ratioP2;P2;SDS_P1;SDS_P2;PMS_P1;PMS_P2;Temp;Humidity;BMP_temperature;BMP_pressure;BME280_temperature;BME280_humidity;BME280_pressure;Samples;Min_cycle;Max_cycle;Signal;HPM_P1;HPM_P2
2022/11/01 00:01:55;;;;;;;70.00;37.88;;;8.80;99.90;;;;;;4961836;28;20026;-57
2022/11/01 00:04:21;;;;;;;54.17;31.73;;;8.80;99.90;;;;;;4951936;29;20035;-58
2022/11/01 00:06:48;;;;;;;59.38;34.00;;;8.70;99.90;;;;;;4934666;29;20027;-57
2022/11/01 00:09:14;;;;;;;50.95;29.40;;;8.70;99.90;;;;;;4950864;29;20066;-58
2022/11/01 00:11:40;;;;;;;57.85;32.13;;;8.70;99.90;;;;;;4959487;28;20026;-57
2022/11/01 00:14:06;;;;;;;56.17;33.95;;;8.70;99.90;;;;;;4962289;28;20037;-55
2022/11/01 00:16:32;;;;;;;64.95;33.40;;;8.70;99.90;;;;;;4964802;28;20344;-57
2022/11/01 00:18:58;;;;;;;74.13;42.35;;;8.70;99.90;;;;;;4960667;28;20098;-57
2022/11/01 00:21:23;;;;;;;46.97;29.33;;;8.70;99.90;;;;;;4961878;28;20758;-56
2022/11/01 00:23:49;;;;;;;56.80;33.00;;;8.70;99.90;;;;;;4961927;28;20529;-55
2022/11/01 00:26:19;;;;;;;57.55;32.90;;;8.70;99.90;;;;;;4960361;28;20491;-55
2022/11/01 00:28:45;;;;;;;55.47;34.08;;;8.70;99.90;;;;;;4962771;28;20038;-55
2022/11/01 00:31:11;;;;;;;57.30;34.00;;;8.70;99.90;;;;;;4965342;28;20122;-56
2022/11/01 00:33:38;;;;;;;60.03;34.45;;;8.70;99.90;;;;;;4971036;28;20145;-56
2022/11/01 00:36:04;;;;;;;54.83;30.00;;;8.80;99.90;;;;;;4949454;28;20043;-58
2022/11/01 00:38:30;;;;;;;54.60;31.65;;;8.90;99.90;;;;;;4960430;28;20050;-55
2022/11/01 00:40:56;;;;;;;56.40;31.60;;;8.90;99.90;;;;;;4979533;28;20030;-54
2022/11/01 00:43:22;;;;;;;57.47;31.30;;;8.80;99.90;;;;;;4974685;28;20038;-55
2022/11/01 00:45:48;;;;;;;57.47;31.27;;;8.80;99.90;;;;;;4968354;28;20023;-58
2022/11/01 00:48:13;;;;;;;52.08;31.08;;;8.80;99.90;;;;;;4980967;28;20038;-56
2022/11/01 00:50:39;;;;;;;53.22;28.27;;;8.90;99.90;;;;;;4960581;28;20053;-55
2022/11/01 00:53:05;;;;;;;51.00;29.85;;;8.80;99.90;;;;;;4969088;28;20101;-56
2022/11/01 00:55:31;;;;;;;53.83;28.60;;;8.80;99.90;;;;;;4981058;28;20023;-59
2022/11/01 00:57:57;;;;;;;49.63;28.10;;;8.80;99.90;;;;;;4980233;28;20034;-58
2022/11/01 01:00:23;;;;;;;46.13;28.70;;;8.90;99.90;;;;;;4980240;28;20118;-58
2022/11/01 01:02:49;;;;;;;50.70;28.33;;;8.80;99.90;;;;;;4957980;28;20035;-57
2022/11/01 01:05:15;;;;;;;48.25;27.65;;;8.80;99.90;;;;;;4954787;28;20042;-58
2022/11/01 01:07:41;;;;;;;50.30;28.90;;;8.80;99.90;;;;;;4971216;28;20091;-57
2022/11/01 01:10:07;;;;;;;58.30;28.30;;;8.80;99.90;;;;;;4953563;28;20719;-58
2022/11/01 01:12:33;;;;;;;65.00;30.60;;;8.80;99.90;;;;;;4971071;28;20023;-58
2022/11/01 01:14:59;;;;;;;58.40;29.30;;;8.80;99.90;;;;;;4971331;28;20077;-58
2022/11/01 01:17:25;;;;;;;52.45;28.60;;;8.80;99.90;;;;;;4971110;28;20505;-56
2022/11/01 01:19:50;;;;;;;64.40;29.58;;;9.00;99.90;;;;;;4971145;28;20113;-59
2022/11/01 01:22:16;;;;;;;62.25;30.35;;;8.80;99.90;;;;;;4970906;28;20122;-57
2022/11/01 01:24:44;;;;;;;58.45;29.35;;;8.90;99.90;;;;;;4970996;28;20050;-56
2022/11/01 01:27:14;;;;;;;55.60;27.33;;;8.90;99.90;;;;;;4970692;28;20037;-59
2022/11/01 01:29:40;;;;;;;62.45;29.60;;;8.90;99.90;;;;;;4971084;28;20089;-56
2022/11/01 01:32:18;;;;;;;67.50;27.48;;;9.00;99.90;;;;;;4953465;28;20023;-56
2022/11/01 01:34:44;;;;;;;57.70;26.58;;;9.00;99.90;;;;;;4971046;28;20045;-57
2022/11/01 01:37:11;;;;;;;70.80;27.40;;;9.00;99.90;;;;;;4970468;28;20027;-57
2022/11/01 01:39:36;;;;;;;52.60;26.77;;;9.00;99.90;;;;;;4971200;28;20166;-58
2022/11/01 01:42:15;;;;;;;56.28;25.48;;;9.00;99.90;;;;;;4970913;28;20354;-58
2022/11/01 01:44:55;;;;;;;57.20;27.27;;;8.90;99.90;;;;;;4970982;28;20042;-58
2022/11/01 01:47:28;;;;;;;57.38;24.52;;;9.00;99.90;;;;;;4970672;28;20077;-58
2022/11/01 01:50:10;;;;;;;50.13;25.83;;;9.10;99.90;;;;;;4970825;28;20110;-55
2022/11/01 01:52:45;;;;;;;56.05;23.45;;;9.20;99.90;;;;;;4970983;28;20033;-56
2022/11/01 01:55:14;;;;;;;61.28;23.08;;;9.20;99.90;;;;;;4970709;28;20031;-56
2022/11/01 01:57:41;;;;;;;57.22;22.77;;;9.20;99.90;;;;;;4970754;28;20042;-58
2022/11/01 02:00:08;;;;;;;100.45;23.48;;;9.20;99.90;;;;;;4974182;28;20058;-58
2022/11/01 02:02:33;;;;;;;92.80;24.83;;;9.20;99.90;;;;;;4956860;28;20395;-56
2022/11/01 02:05:10;;;;;;;68.40;25.73;;;9.30;99.90;;;;;;4974524;28;20058;-57
2022/11/01 02:07:35;;;;;;;80.18;26.00;;;9.40;99.90;;;;;;4974507;28;20057;-58
2022/11/01 02:10:02;;;;;;;137.98;26.63;;;9.40;99.90;;;;;;4974314;28;20050;-59
2022/11/01 02:12:35;;;;;;;156.00;28.58;;;9.40;99.90;;;;;;4973972;28;20031;-56
2022/11/01 02:15:02;;;;;;;162.57;30.83;;;9.40;99.90;;;;;;4974165;28;20023;-58
2022/11/01 02:17:47;;;;;;;156.55;31.50;;;9.40;99.90;;;;;;4974231;28;20585;-58
2022/11/01 02:20:44;;;;;;;178.45;30.92;;;9.50;99.90;;;;;;4974122;28;20059;-56
2022/11/01 02:23:44;;;;;;;120.28;31.13;;;9.50;99.90;;;;;;4956751;28;20512;-59
2022/11/01 02:26:20;;;;;;;;;;;9.50;99.90;;;;;;4974556;28;20035;-57
2022/11/01 02:29:04;;;;;;;157.32;35.83;;;9.60;99.90;;;;;;4956608;28;20260;-58
2022/11/01 02:31:32;;;;;;;140.13;39.22;;;9.60;99.90;;;;;;4973709;28;20034;-58
2022/11/01 02:34:20;;;;;;;126.55;39.85;;;9.60;99.90;;;;;;4973965;28;20529;-56
2022/11/01 02:36:58;;;;;;;106.20;38.38;;;9.70;99.90;;;;;;4973838;28;20479;-58
2022/11/01 02:39:31;;;;;;;117.38;39.03;;;9.70;99.90;;;;;;4973888;28;20538;-59
2022/11/01 02:42:15;;;;;;;112.93;39.22;;;9.70;99.90;;;;;;4973754;28;20062;-57
2022/11/01 02:44:48;;;;;;;126.68;43.35;;;9.70;99.90;;;;;;4956334;28;20419;-58
2022/11/01 02:47:13;;;;;;;114.88;44.13;;;9.70;99.90;;;;;;4973874;28;20133;-58
2022/11/01 02:49:46;;;;;;;108.72;42.88;;;9.70;99.90;;;;;;4973809;28;20075;-57
2022/11/01 02:52:16;;;;;;;99.40;41.17;;;9.70;99.90;;;;;;4973676;28;20101;-57
2022/11/01 02:54:51;;;;;;;92.50;41.17;;;9.70;99.90;;;;;;4973528;28;20078;-57
2022/11/01 02:57:27;;;;;;;81.00;37.08;;;9.70;99.90;;;;;;4973864;28;20156;-58
2022/11/01 03:00:03;;;;;;;78.63;36.17;;;9.70;99.90;;;;;;4973709;28;20035;-57
2022/11/01 03:02:38;;;;;;;74.63;35.90;;;9.70;99.90;;;;;;4973488;28;20109;-57
2022/11/01 03:05:24;;;;;;;70.60;35.75;;;9.60;99.90;;;;;;4973539;28;20042;-56
2022/11/01 03:07:59;;;;;;;69.07;34.00;;;9.60;99.90;;;;;;4973482;28;20030;-57
2022/11/01 03:10:52;;;;;;;68.68;34.35;;;9.70;99.90;;;;;;4954863;28;20402;-59
2022/11/01 03:13:32;;;;;;;66.25;34.08;;;9.70;99.90;;;;;;4965115;28;20042;-58
2022/11/01 03:16:10;;;;;;;67.40;34.53;;;9.70;99.90;;;;;;4973254;28;20539;-58
2022/11/01 03:18:44;;;;;;;63.22;33.75;;;9.70;99.90;;;;;;4973118;28;20125;-57
2022/11/01 03:21:14;;;;;;;63.40;34.70;;;9.80;99.90;;;;;;4955611;28;20501;-55
2022/11/01 03:24:06;;;;;;;69.88;37.22;;;9.80;99.90;;;;;;4972960;28;20058;-57
2022/11/01 03:26:33;;;;;;;64.53;31.73;;;9.80;99.90;;;;;;4973192;28;20044;-58
2022/11/01 03:29:06;;;;;;;63.28;32.17;;;9.80;99.90;;;;;;4972994;28;20081;-61
2022/11/01 03:31:35;;;;;;;52.88;30.83;;;9.80;99.90;;;;;;4972924;28;20030;-57
2022/11/01 03:34:17;;;;;;;51.63;30.70;;;9.80;99.90;;;;;;4951904;29;20055;-57
2022/11/01 03:36:50;;;;;;;59.38;32.20;;;9.80;99.90;;;;;;4953903;29;20027;-56
2022/11/01 03:39:24;;;;;;;54.60;30.98;;;9.90;99.90;;;;;;4953684;28;20043;-57
2022/11/01 03:41:57;;;;;;;46.15;28.70;;;9.80;99.90;;;;;;4953724;29;20122;-56
2022/11/01 03:44:24;;;;;;;48.35;27.65;;;9.80;99.90;;;;;;4953723;29;20074;-56
2022/11/01 03:46:50;;;;;;;42.60;25.80;;;9.80;99.90;;;;;;4966154;28;20118;-59
2022/11/01 03:49:19;;;;;;;43.03;26.98;;;9.80;99.90;;;;;;4972859;28;20035;-57
2022/11/01 03:51:45;;;;;;;39.65;23.95;;;9.80;99.90;;;;;;4972427;28;20033;-59
2022/11/01 03:54:11;;;;;;;38.45;23.52;;;9.80;99.90;;;;;;4971126;28;20438;-59
2022/11/01 03:56:39;;;;;;;35.58;21.23;;;9.80;99.90;;;;;;4972453;28;20521;-58
2022/11/01 03:59:07;;;;;;;33.08;21.58;;;9.80;99.90;;;;;;4970824;28;20042;-57
2022/11/01 04:01:33;;;;;;;35.40;21.40;;;9.80;99.90;;;;;;4972332;28;20031;-57
2022/11/01 04:03:58;;;;;;;33.90;20.63;;;9.80;99.90;;;;;;4972297;28;20366;-60
2022/11/01 04:06:24;;;;;;;35.95;21.15;;;9.80;99.90;;;;;;4972370;28;20026;-58
2022/11/01 04:08:50;;;;;;;35.83;20.77;;;9.80;99.90;;;;;;4972220;28;20049;-57
2022/11/01 04:11:16;;;;;;;30.20;19.95;;;9.90;99.90;;;;;;4972133;28;20061;-56
2022/11/01 04:13:42;;;;;;;31.83;18.98;;;9.80;99.90;;;;;;4972204;28;20446;-58
2022/11/01 04:21:38;;;;;;;33.05;18.08;;;9.80;99.90;;;;;;4971826;28;20109;-58
2022/11/01 04:24:04;;;;;;;29.98;18.33;;;9.80;99.90;;;;;;4971976;28;20053;-55
2022/11/01 04:26:30;;;;;;;30.95;16.83;;;9.80;99.90;;;;;;4971975;28;20058;-57
2022/11/01 04:28:55;;;;;;;28.83;16.52;;;9.90;99.90;;;;;;4972112;28;20038;-56
2022/11/01 04:31:33;;;;;;;28.33;16.85;;;9.90;99.90;;;;;;4971772;28;20374;-56
2022/11/01 04:34:00;;;;;;;27.95;15.43;;;9.90;99.90;;;;;;4971693;28;20051;-58
2022/11/01 04:36:26;;;;;;;30.08;16.33;;;9.90;99.90;;;;;;4971644;28;20066;-58
2022/11/01 04:38:55;;;;;;;30.42;15.85;;;10.00;99.90;;;;;;4971424;28;20438;-56
2022/11/01 04:41:22;;;;;;;26.80;16.38;;;10.00;99.90;;;;;;4971487;28;20107;-59
2022/11/01 04:43:50;;;;;;;30.15;15.85;;;10.00;99.90;;;;;;4971522;28;20034;-59
2022/11/01 04:46:16;;;;;;;27.50;15.55;;;10.00;99.90;;;;;;4971863;28;20027;-56
2022/11/01 04:48:42;;;;;;;24.88;15.35;;;10.10;99.90;;;;;;4971838;28;20037;-58
2022/11/01 04:51:08;;;;;;;25.08;15.25;;;10.10;99.90;;;;;;4971314;28;20045;-59
2022/11/01 04:53:35;;;;;;;32.40;15.95;;;10.10;99.90;;;;;;4971369;28;20757;-58
2022/11/01 04:56:02;;;;;;;27.25;15.73;;;10.10;99.90;;;;;;4971544;28;20591;-56
2022/11/01 04:58:28;;;;;;;26.50;15.13;;;10.10;99.90;;;;;;4971273;28;20046;-58
2022/11/01 05:00:54;;;;;;;27.08;15.85;;;10.20;99.90;;;;;;4985697;28;20034;-58
2022/11/01 05:03:20;;;;;;;25.23;14.80;;;10.10;99.90;;;;;;4990943;28;20109;-58
2022/11/01 05:05:46;;;;;;;24.15;15.18;;;10.10;99.90;;;;;;4990800;28;20545;-57
2022/11/01 05:08:12;;;;;;;23.02;14.65;;;10.10;99.90;;;;;;4990734;28;20105;-57
2022/11/01 05:10:42;;;;;;;26.40;14.50;;;10.10;99.90;;;;;;4990605;28;20021;-59
2022/11/01 05:13:09;;;;;;;25.38;15.85;;;10.00;99.90;;;;;;4973090;28;20125;-58
2022/11/01 05:15:35;;;;;;;27.63;14.43;;;10.00;99.90;;;;;;4990670;28;20027;-59
2022/11/01 05:18:01;;;;;;;24.17;13.35;;;9.90;99.90;;;;;;4990520;28;20042;-57
2022/11/01 05:20:29;;;;;;;26.40;15.48;;;10.00;99.90;;;;;;4990309;28;20130;-57
2022/11/01 05:22:59;;;;;;;27.25;14.10;;;10.00;99.90;;;;;;4990579;28;20031;-59
2022/11/01 05:25:25;;;;;;;26.45;14.63;;;9.90;99.90;;;;;;4990415;28;20022;-58
2022/11/01 05:27:50;;;;;;;32.10;13.52;;;9.90;99.90;;;;;;4990692;28;20030;-55
2022/11/01 05:30:16;;;;;;;24.55;13.55;;;9.80;99.90;;;;;;4990492;28;20103;-58
2022/11/01 05:32:42;;;;;;;29.02;14.63;;;9.70;99.90;;;;;;4986289;28;20475;-59
2022/11/01 05:35:08;;;;;;;25.27;14.70;;;9.70;99.90;;;;;;4974890;28;20031;-57
2022/11/01 05:37:34;;;;;;;28.52;13.77;;;9.70;99.90;;;;;;4974797;28;20101;-60
2022/11/01 05:40:00;;;;;;;22.23;12.85;;;9.70;99.90;;;;;;4975057;28;20050;-57
2022/11/01 05:42:26;;;;;;;21.20;12.45;;;9.70;99.90;;;;;;4974859;28;20027;-59
2022/11/01 05:44:52;;;;;;;24.05;13.85;;;9.80;99.90;;;;;;4974854;28;20436;-59
2022/11/01 05:47:17;;;;;;;24.52;13.57;;;9.80;99.90;;;;;;4975285;28;20037;-58
2022/11/01 05:49:43;;;;;;;26.70;13.52;;;9.70;99.90;;;;;;4974799;28;20474;-56
2022/11/01 05:52:09;;;;;;;25.60;14.27;;;9.70;99.90;;;;;;4974767;28;20081;-60
2022/11/01 05:54:34;;;;;;;25.08;14.82;;;9.70;99.90;;;;;;4974747;28;20062;-59
2022/11/01 05:57:00;;;;;;;29.00;14.88;;;9.70;99.90;;;;;;4974739;28;20113;-57
2022/11/01 05:59:25;;;;;;;30.52;15.95;;;9.70;99.90;;;;;;4974484;28;20105;-57
2022/11/01 06:01:51;;;;;;;29.45;14.30;;;9.80;99.90;;;;;;4974798;28;20039;-59
2022/11/01 06:04:17;;;;;;;23.25;13.77;;;9.80;99.90;;;;;;4957174;28;20034;-59
2022/11/01 06:06:42;;;;;;;21.48;11.82;;;9.80;99.90;;;;;;4974939;28;20126;-59
2022/11/01 06:09:08;;;;;;;22.52;12.30;;;9.90;99.90;;;;;;4974713;28;20558;-57
2022/11/01 06:11:34;;;;;;;27.23;12.65;;;9.90;99.90;;;;;;4974386;28;20022;-58
2022/11/01 06:14:00;;;;;;;24.40;12.80;;;9.90;99.90;;;;;;4974390;28;20035;-58
2022/11/01 06:16:25;;;;;;;21.33;12.00;;;10.00;99.90;;;;;;4974361;28;20022;-58
2022/11/01 06:18:52;;;;;;;26.35;13.73;;;10.00;99.90;;;;;;4974129;28;20445;-58
2022/11/01 06:21:20;;;;;;;26.73;13.37;;;10.10;99.90;;;;;;4974374;28;20085;-60
2022/11/01 06:23:49;;;;;;;23.88;12.45;;;10.10;99.90;;;;;;4974300;28;20023;-57
2022/11/01 06:26:16;;;;;;;25.50;12.10;;;10.10;99.90;;;;;;4974338;28;20031;-57
2022/11/01 06:28:42;;;;;;;21.38;11.00;;;10.20;99.90;;;;;;4957109;28;20035;-60
2022/11/01 06:31:08;;;;;;;23.83;12.05;;;10.20;99.90;;;;;;4971379;28;20433;-60
2022/11/01 06:33:34;;;;;;;23.70;12.48;;;10.20;99.90;;;;;;4984988;28;20050;-59
2022/11/01 06:36:00;;;;;;;22.30;12.50;;;10.20;99.90;;;;;;4993470;28;20022;-60
2022/11/01 06:38:26;;;;;;;22.75;11.00;;;10.20;99.90;;;;;;4993385;28;20124;-59
2022/11/01 06:40:52;;;;;;;21.02;11.90;;;10.30;99.90;;;;;;4993401;28;20110;-59
2022/11/01 06:43:18;;;;;;;22.60;11.27;;;10.30;99.90;;;;;;4993323;28;20030;-58
2022/11/01 06:45:43;;;;;;;20.10;11.52;;;10.30;99.90;;;;;;4992775;28;20025;-59
2022/11/01 06:48:09;;;;;;;22.60;11.45;;;10.40;99.90;;;;;;4993331;28;20077;-56
2022/11/01 06:50:35;;;;;;;21.10;11.07;;;10.40;99.90;;;;;;4993313;28;20030;-58
2022/11/01 06:53:00;;;;;;;21.52;12.30;;;10.40;99.90;;;;;;4993183;28;20027;-59
2022/11/01 06:55:27;;;;;;;17.90;10.18;;;10.50;99.90;;;;;;4993236;28;20433;-59
2022/11/01 06:57:54;;;;;;;21.92;11.25;;;10.40;99.90;;;;;;4993347;28;20120;-61
2022/11/01 07:00:20;;;;;;;22.75;12.10;;;10.50;99.90;;;;;;4986091;28;20058;-61
2022/11/01 07:02:45;;;;;;;21.05;11.63;;;10.50;99.90;;;;;;4979568;28;20481;-59
2022/11/01 07:05:11;;;;;;;22.40;12.07;;;10.60;99.90;;;;;;4992123;28;20033;-58
2022/11/01 07:07:36;;;;;;;24.65;11.75;;;10.60;99.90;;;;;;4992864;28;20034;-58
2022/11/01 07:10:03;;;;;;;20.73;11.40;;;10.60;99.90;;;;;;4992821;28;20026;-60
2022/11/01 07:12:28;;;;;;;21.98;12.40;;;10.70;99.90;;;;;;4975439;28;20057;-59
2022/11/01 07:14:54;;;;;;;22.17;11.32;;;10.80;99.90;;;;;;4992400;28;20069;-59
2022/11/01 07:17:19;;;;;;;18.15;11.55;;;10.90;99.90;;;;;;4992865;28;20121;-60
2022/11/01 07:19:45;;;;;;;21.48;11.80;;;11.00;99.90;;;;;;4992668;28;20078;-57
2022/11/01 07:22:11;;;;;;;20.58;11.50;;;11.10;99.90;;;;;;4992573;28;20030;-57
2022/11/01 07:24:36;;;;;;;18.02;11.18;;;11.10;99.90;;;;;;4959094;28;20037;-57
2022/11/01 07:27:02;;;;;;;25.88;11.70;;;11.10;99.90;;;;;;4992312;28;20061;-58
2022/11/01 07:29:28;;;;;;;23.00;10.50;;;11.10;99.90;;;;;;4992278;28;20019;-59
2022/11/01 07:31:53;;;;;;;21.33;11.38;;;11.10;99.90;;;;;;4986508;28;20089;-57
2022/11/01 07:34:19;;;;;;;24.35;12.15;;;11.20;99.90;;;;;;4975174;28;20047;-58
2022/11/01 07:36:45;;;;;;;18.98;10.27;;;11.10;99.90;;;;;;4969444;28;20062;-58
2022/11/01 07:39:13;;;;;;;20.20;10.38;;;11.30;99.90;;;;;;4953521;29;20090;-60
2022/11/01 07:41:38;;;;;;;20.67;10.27;;;11.50;99.90;;;;;;4953346;29;20031;-59
2022/11/01 07:44:04;;;;;;;18.90;10.95;;;11.50;99.90;;;;;;4936039;29;20030;-60
2022/11/01 07:46:31;;;;;;;19.15;9.77;;;11.60;99.90;;;;;;4953480;29;20050;-60
2022/11/01 07:48:59;;;;;;;22.00;9.98;;;11.50;99.90;;;;;;4960508;28;20023;-59
2022/11/01 07:51:25;;;;;;;18.95;11.13;;;11.70;99.90;;;;;;4961348;28;20035;-58
2022/11/01 07:53:53;;;;;;;17.13;9.68;;;11.70;99.90;;;;;;4944057;28;20026;-58
2022/11/01 07:56:20;;;;;;;18.50;9.02;;;11.70;99.90;;;;;;4962069;28;20022;-60
2022/11/01 07:58:46;;;;;;;20.95;9.98;;;11.70;99.90;;;;;;4961314;28;20475;-56
2022/11/01 08:01:12;;;;;;;24.35;11.00;;;11.80;99.90;;;;;;4960460;28;20042;-57
2022/11/01 08:03:37;;;;;;;19.23;10.48;;;11.80;99.90;;;;;;4962365;28;20109;-58
2022/11/01 08:06:03;;;;;;;21.50;10.82;;;11.80;99.90;;;;;;4943702;28;20491;-59
2022/11/01 08:08:29;;;;;;;20.45;10.90;;;12.00;99.90;;;;;;4960900;28;20486;-59
2022/11/01 08:10:54;;;;;;;18.75;9.73;;;12.00;99.90;;;;;;4962109;28;20051;-60
2022/11/01 08:13:22;;;;;;;15.77;9.93;;;11.90;99.90;;;;;;4960577;28;20134;-58
2022/11/01 08:15:50;;;;;;;26.05;10.20;;;12.00;99.90;;;;;;4960633;28;20512;-57
2022/11/01 08:18:16;;;;;;;;;;;12.00;99.90;;;;;;4962554;28;20426;-59
2022/11/01 08:20:42;;;;;;;18.30;9.60;;;12.00;99.90;;;;;;4960451;28;20429;-59
2022/11/01 08:23:09;;;;;;;16.27;9.15;;;12.10;99.90;;;;;;4960626;28;20501;-60
2022/11/01 08:25:35;;;;;;;18.00;9.20;;;12.10;99.90;;;;;;4961934;28;20480;-56
2022/11/01 08:28:06;;;;;;;17.98;9.80;;;12.20;99.90;;;;;;4960253;28;20049;-59
2022/11/01 08:30:33;;;;;;;23.05;9.77;;;12.30;99.90;;;;;;4960244;28;20019;-58
2022/11/01 08:33:00;;;;;;;15.52;9.15;;;12.40;99.90;;;;;;4961672;28;20108;-59
2022/11/01 08:35:26;;;;;;;15.70;9.20;;;12.40;99.90;;;;;;4943761;28;20386;-59
2022/11/01 08:37:53;;;;;;;19.10;9.25;;;12.30;99.90;;;;;;4959658;28;20478;-58
2022/11/01 08:40:19;;;;;;;19.60;8.57;;;12.50;99.90;;;;;;4961698;28;20149;-57
2022/11/01 08:42:45;;;;;;;22.67;10.27;;;12.50;99.90;;;;;;4960696;28;20035;-60
2022/11/01 08:45:11;;;;;;;18.30;9.25;;;12.70;99.90;;;;;;4960013;28;20042;-56
2022/11/01 08:47:38;;;;;;;17.83;8.60;;;12.60;99.90;;;;;;4966572;28;20038;-58
2022/11/01 08:50:04;;;;;;;20.10;9.53;;;12.60;99.90;;;;;;4969567;28;20019;-56
2022/11/01 08:52:30;;;;;;;20.27;11.87;;;12.50;99.90;;;;;;4967493;28;20106;-55
2022/11/01 08:54:56;;;;;;;20.15;11.02;;;12.60;99.90;;;;;;4968713;28;20302;-57
2022/11/01 08:57:21;;;;;;;26.17;9.75;;;12.60;99.90;;;;;;4969015;28;20023;-55
2022/11/01 08:59:47;;;;;;;16.63;9.27;;;12.50;99.90;;;;;;4969099;28;20588;-56
2022/11/01 09:02:13;;;;;;;18.88;10.25;;;12.40;99.90;;;;;;4961753;28;20400;-55
2022/11/01 09:04:38;;;;;;;21.65;9.82;;;12.50;99.90;;;;;;4942421;28;20187;-57
2022/11/01 09:07:04;;;;;;;15.88;9.63;;;12.60;99.90;;;;;;4960156;28;20023;-56
2022/11/01 09:09:29;;;;;;;20.05;10.45;;;12.70;99.90;;;;;;4965813;28;20034;-56
2022/11/01 09:11:55;;;;;;;24.15;11.80;;;12.70;99.90;;;;;;4953674;28;20101;-56
2022/11/01 09:14:23;;;;;;;24.65;11.50;;;12.70;99.90;;;;;;4971095;28;20031;-56
2022/11/01 09:16:50;;;;;;;21.40;12.30;;;12.60;99.90;;;;;;4966159;28;20031;-56
2022/11/01 09:19:15;;;;;;;25.77;13.38;;;12.60;99.90;;;;;;4961133;28;20038;-57
2022/11/01 09:21:45;;;;;;;19.75;11.27;;;12.50;99.90;;;;;;4959462;28;20027;-56
2022/11/01 09:24:11;;;;;;;21.27;13.48;;;12.40;99.90;;;;;;4957783;28;20027;-56
2022/11/01 09:26:38;;;;;;;21.00;12.27;;;12.30;99.90;;;;;;4960914;28;20026;-56
2022/11/01 09:29:04;;;;;;;24.45;12.23;;;12.30;99.90;;;;;;4958601;28;20035;-57
2022/11/01 09:31:29;;;;;;;23.30;12.23;;;12.40;99.90;;;;;;4941704;28;20028;-56
2022/11/01 09:33:56;;;;;;;17.67;10.90;;;12.30;99.90;;;;;;4957390;28;20061;-56
2022/11/01 09:36:23;;;;;;;20.73;12.07;;;12.40;99.90;;;;;;4958665;28;20023;-57
2022/11/01 09:38:50;;;;;;;20.77;11.95;;;12.20;99.90;;;;;;4958904;28;20039;-57
2022/11/01 09:41:41;;;;;;;26.70;13.45;;;12.30;99.90;;;;;;4957214;28;20477;-56
2022/11/01 09:44:13;;;;;;;24.77;12.82;;;12.30;99.90;;;;;;4961752;28;20027;-57
2022/11/01 09:46:53;;;;;;;23.88;11.88;;;12.30;99.90;;;;;;4961855;28;20480;-57
2022/11/01 09:49:32;;;;;;;28.33;13.25;;;12.20;99.90;;;;;;4960886;28;20023;-58
2022/11/01 09:51:58;;;;;;;20.83;11.52;;;12.40;99.90;;;;;;4961136;28;20027;-56
2022/11/01 09:54:25;;;;;;;21.63;12.02;;;12.30;99.90;;;;;;4958356;28;20383;-55
2022/11/01 09:57:04;;;;;;;24.10;12.20;;;12.40;99.90;;;;;;4951367;29;20027;-57
2022/11/01 09:59:36;;;;;;;22.20;12.35;;;12.20;99.90;;;;;;4935586;29;20058;-56
2022/11/01 10:02:40;;;;;;;18.55;10.80;;;12.40;99.90;;;;;;4951585;29;20109;-57
2022/11/01 10:05:53;;;;;;;18.70;10.80;;;12.40;99.90;;;;;;4922078;29;20039;-55
2022/11/01 10:08:40;;;;;;;19.23;10.82;;;12.40;99.90;;;;;;4892422;29;20039;-55
2022/11/01 10:11:27;;;;;;;21.38;12.77;;;12.40;99.90;;;;;;4954301;28;20031;-55
2022/11/01 10:14:08;;;;;;;19.02;11.82;;;12.60;99.90;;;;;;4951364;29;20019;-55
2022/11/01 10:16:40;;;;;;;22.10;13.05;;;12.70;99.90;;;;;;4933882;29;20023;-55
2022/11/01 10:19:17;;;;;;;23.15;11.60;;;12.70;99.90;;;;;;4951862;28;20031;-56
2022/11/01 10:21:47;;;;;;;25.73;14.25;;;12.80;99.90;;;;;;4954636;29;20027;-56
2022/11/01 10:24:54;;;;;;;26.67;13.05;;;12.60;99.90;;;;;;4954808;29;20046;-56
2022/11/01 10:28:01;;;;;;;23.95;12.27;;;12.60;99.90;;;;;;4860777;29;20089;-56
2022/11/01 10:30:31;;;;;;;22.08;11.40;;;12.60;99.90;;;;;;4876400;29;20032;-55
2022/11/01 10:33:01;;;;;;;22.75;12.05;;;13.10;99.90;;;;;;4938672;28;20047;-56
2022/11/01 10:35:29;;;;;;;23.77;12.00;;;13.50;99.90;;;;;;4954704;29;20031;-55
2022/11/01 10:38:39;;;;;;;56.92;32.15;;;13.60;99.90;;;;;;4958136;28;20496;-54
2022/11/01 10:41:07;;;;;;;23.92;12.77;;;13.30;99.90;;;;;;4956933;28;20066;-55
2022/11/01 10:43:37;;;;;;;25.48;12.48;;;13.10;99.90;;;;;;4973828;28;20394;-54
2022/11/01 10:46:06;;;;;;;22.58;11.25;;;13.20;99.90;;;;;;4973747;28;20027;-54
2022/11/01 10:48:41;;;;;;;22.33;10.82;;;13.50;99.90;;;;;;4970401;28;20038;-56
2022/11/01 10:51:08;;;;;;;22.58;10.57;;;13.50;99.90;;;;;;4972430;28;20043;-55
2022/11/01 10:53:41;;;;;;;20.95;11.82;;;13.90;99.90;;;;;;4972034;28;20019;-55
2022/11/01 10:56:11;;;;;;;19.38;12.55;;;14.00;99.90;;;;;;4972273;28;20046;-56
2022/11/01 10:58:46;;;;;;;19.08;11.25;;;14.00;99.90;;;;;;4971896;28;20038;-55
2022/11/01 11:01:21;;;;;;;32.17;11.60;;;13.90;99.90;;;;;;4968300;28;20038;-54
2022/11/01 11:03:48;;;;;;;17.70;11.38;;;13.80;99.90;;;;;;4970978;28;20489;-57
2022/11/01 11:06:17;;;;;;;;;;;13.90;99.90;;;;;;4968751;28;20049;-56
2022/11/01 11:08:47;;;;;;;18.15;10.93;;;14.10;99.90;;;;;;4970817;28;20266;-56
2022/11/01 11:11:15;;;;;;;20.13;11.48;;;14.00;99.90;;;;;;4970948;28;20077;-57
2022/11/01 11:13:45;;;;;;;18.27;10.93;;;14.10;99.90;;;;;;4970697;28;20018;-58
2022/11/01 11:16:30;;;;;;;19.15;10.85;;;14.10;99.90;;;;;;4970883;28;20027;-56
2022/11/01 11:19:27;;;;;;;22.70;11.40;;;13.60;99.90;;;;;;4971153;28;20147;-56
2022/11/01 11:21:53;;;;;;;22.92;12.77;;;13.30;99.90;;;;;;4969680;28;20038;-55
2022/11/01 11:24:25;;;;;;;20.95;12.77;;;13.30;99.90;;;;;;4971673;28;20074;-56
2022/11/01 11:26:54;;;;;;;20.30;13.13;;;13.00;99.90;;;;;;4971223;28;20080;-55
2022/11/01 11:29:48;;;;;;;20.08;13.60;;;13.00;99.90;;;;;;4937867;28;20022;-55
2022/11/01 11:32:26;;;;;;;24.55;11.70;;;13.30;99.90;;;;;;4968240;28;20030;-56
2022/11/01 11:34:59;;;;;;;19.45;12.50;;;13.30;99.90;;;;;;4964159;28;20073;-56
2022/11/01 11:37:30;;;;;;;21.35;12.45;;;13.40;99.90;;;;;;4963451;28;20090;-57
2022/11/01 11:40:21;;;;;;;24.35;14.32;;;13.40;99.90;;;;;;4960776;28;20387;-57
2022/11/01 11:42:48;;;;;;;23.65;13.70;;;13.50;99.90;;;;;;4968385;28;20534;-54
2022/11/01 11:45:28;;;;;;;25.98;13.55;;;13.50;99.90;;;;;;4970486;28;20035;-53
2022/11/01 11:48:17;;;;;;;25.02;13.30;;;13.50;99.90;;;;;;4970086;28;20019;-54
2022/11/01 11:50:43;;;;;;;22.13;12.48;;;13.70;99.90;;;;;;4952623;28;20027;-56
2022/11/01 11:53:20;;;;;;;24.83;12.05;;;13.90;99.90;;;;;;4965363;28;20166;-57
2022/11/01 11:55:53;;;;;;;58.50;36.33;;;14.10;99.90;;;;;;4951266;28;20023;-53
2022/11/01 11:58:37;;;;;;;21.70;11.88;;;14.20;99.90;;;;;;4959679;28;20511;-58
2022/11/01 12:01:06;;;;;;;19.58;11.25;;;13.90;99.90;;;;;;4961704;28;20071;-58
2022/11/01 12:03:55;;;;;;;18.27;11.23;;;13.90;99.90;;;;;;4943475;28;20122;-56
2022/11/01 12:06:26;;;;;;;21.63;11.43;;;14.00;99.90;;;;;;4960133;28;20030;-56
2022/11/01 12:08:56;;;;;;;27.75;11.85;;;14.00;99.90;;;;;;4970099;28;20034;-57
2022/11/01 12:11:24;;;;;;;17.67;11.35;;;13.80;99.90;;;;;;4952786;28;20019;-56
2022/11/01 12:14:21;;;;;;;18.45;11.48;;;13.50;99.90;;;;;;4968691;28;20034;-55
2022/11/01 12:16:46;;;;;;;17.50;11.63;;;13.70;99.90;;;;;;4968841;28;20027;-57
2022/11/01 12:19:41;;;;;;;18.02;10.60;;;13.80;99.90;;;;;;4952136;28;20045;-56
2022/11/01 12:22:09;;;;;;;19.88;11.35;;;13.70;99.90;;;;;;4948232;28;20077;-56
2022/11/01 12:24:46;;;;;;;19.85;10.65;;;13.60;99.90;;;;;;4969859;28;20023;-58
2022/11/01 12:27:20;;;;;;;16.83;10.82;;;13.40;99.90;;;;;;4968884;28;20027;-58
2022/11/01 12:29:49;;;;;;;17.50;11.27;;;13.30;99.90;;;;;;4969491;28;20106;-57
2022/11/01 12:32:24;;;;;;;21.27;10.30;;;13.30;99.90;;;;;;4968026;28;20076;-57
2022/11/01 12:34:52;;;;;;;20.60;10.68;;;13.30;99.90;;;;;;4968668;28;20034;-57
2022/11/01 12:37:58;;;;;;;21.02;10.40;;;13.20;99.90;;;;;;4969296;28;20030;-56
2022/11/01 12:40:36;;;;;;;20.60;10.95;;;13.10;99.90;;;;;;4969359;28;20023;-57
2022/11/01 12:43:17;;;;;;;25.30;12.30;;;13.00;99.90;;;;;;4969187;28;20027;-57
2022/11/01 12:45:51;;;;;;;24.95;12.93;;;13.20;99.90;;;;;;4969751;28;20122;-56
2022/11/01 12:48:28;;;;;;;21.95;12.20;;;13.40;99.90;;;;;;4964220;28;20142;-56
2022/11/01 12:51:02;;;;;;;20.70;11.40;;;13.60;99.90;;;;;;4968538;28;20537;-56
2022/11/01 12:53:40;;;;;;;24.75;11.30;;;13.60;99.90;;;;;;4968477;28;20031;-58
2022/11/01 12:56:06;;;;;;;21.00;10.55;;;13.90;99.90;;;;;;4968962;28;20023;-58